sensor_id;sensor_type;location;lat;lon;timestamp;pressure;altitude;pressure_sealevel;temperature;humidity
16834;BME280;8533;48.426;10.868;2023-02-28T00:00:46;96649.44;;;-2.00;100.00
16834;BME280;8533;48.426;10.868;2023-02-28T00:03:13;96642.88;;;-2.03;100.00
16834;BME280;8533;48.426;10.868;2023-02-28T00:05:41;96633.91;;;-2.03;100.00
16834;BME280;8533;48.426;10.868;2023-02-28T00:08:09;96646.54;;;-2.05;100.00
16834;BME280;8533;48.426;10.868;2023-02-28T00:10:36;96642.07;;;-2.03;100.00
16834;BME280;8533;48.426;10.868;2023-02-28T00:13:05;96644.60;;;-2.07;100.00
16834;BME280;8533;48.426;10.868;2023-02-28T00:15:33;96646.51;;;-2.09;100.00
16834;BME280;8533;48.426;10.868;2023-02-28T00:18:03;96636.26;;;-2.13;100.00
16834;BME280;8533;48.426;10.868;2023-02-28T00:20:30;96634.97;;;-2.13;100.00
16834;BME280;8533;48.426;10.868;2023-02-28T00:22:58;96636.41;;;-2.15;100.00
16834;BME280;8533;48.426;10.868;2023-02-28T00:25:25;96632.37;;;-2.17;100.00
16834;BME280;8533;48.426;10.868;2023-02-28T00:27:53;96629.02;;;-2.18;100.00
16834;BME280;8533;48.426;10.868;2023-02-28T00:30:22;96628.06;;;-2.21;100.00
16834;BME280;8533;48.426;10.868;2023-02-28T00:32:51;96623.85;;;-2.26;100.00
16834;BME280;8533;48.426;10.868;2023-02-28T00:35:18;96622.09;;;-2.25;100.00
16834;BME280;8533;48.426;10.868;2023-02-28T00:37:46;96629.16;;;-2.23;100.00
16834;BME280;8533;48.426;10.868;2023-02-28T00:40:16;96628.67;;;-2.27;100.00
16834;BME280;8533;48.426;10.868;2023-02-28T00:42:43;96627.84;;;-2.32;100.00
16834;BME280;8533;48.426;10.868;2023-02-28T00:45:10;96622.23;;;-2.31;100.00
16834;BME280;8533;48.426;10.868;2023-02-28T00:47:38;96624.95;;;-2.33;100.00
16834;BME280;8533;48.426;10.868;2023-02-28T00:50:06;96623.81;;;-2.34;100.00
16834;BME280;8533;48.426;10.868;2023-02-28T00:52:34;96625.42;;;-2.37;100.00
16834;BME280;8533;48.426;10.868;2023-02-28T00:55:02;96625.09;;;-2.34;100.00
16834;BME280;8533;48.426;10.868;2023-02-28T00:57:29;96624.28;;;-2.39;100.00
16834;BME280;8533;48.426;10.868;2023-02-28T00:59:56;96627.65;;;-2.38;100.00
16834;BME280;8533;48.426;10.868;2023-02-28T01:02:24;96624.61;;;-2.38;100.00
16834;BME280;8533;48.426;10.868;2023-02-28T01:04:51;96626.66;;;-2.41;100.00
16834;BME280;8533;48.426;10.868;2023-02-28T01:07:20;96621.88;;;-2.40;100.00
16834;BME280;8533;48.426;10.868;2023-02-28T01:09:47;96619.45;;;-2.42;100.00
16834;BME280;8533;48.426;10.868;2023-02-28T01:12:15;96624.43;;;-2.40;100.00
16834;BME280;8533;48.426;10.868;2023-02-28T01:14:42;96625.53;;;-2.43;100.00
16834;BME280;8533;48.426;10.868;2023-02-28T01:17:10;96622.49;;;-2.42;100.00
16834;BME280;8533;48.426;10.868;2023-02-28T01:19:37;96624.72;;;-2.47;100.00
16834;BME280;8533;48.426;10.868;2023-02-28T01:22:06;96622.81;;;-2.45;100.00
16834;BME280;8533;48.426;10.868;2023-02-28T01:24:33;96617.84;;;-2.47;100.00
16834;BME280;8533;48.426;10.868;2023-02-28T01:27:01;96617.70;;;-2.45;100.00
16834;BME280;8533;48.426;10.868;2023-02-28T01:29:28;96617.66;;;-2.49;100.00
16834;BME280;8533;48.426;10.868;2023-02-28T01:31:56;96617.66;;;-2.49;100.00
16834;BME280;8533;48.426;10.868;2023-02-28T01:34:25;96614.14;;;-2.48;100.00
16834;BME280;8533;48.426;10.868;2023-02-28T01:36:52;96620.59;;;-2.44;100.00
16834;BME280;8533;48.426;10.868;2023-02-28T01:39:19;96607.59;;;-2.47;100.00
16834;BME280;8533;48.426;10.868;2023-02-28T01:41:47;96605.51;;;-2.51;100.00
16834;BME280;8533;48.426;10.868;2023-02-28T01:47:18;96604.52;;;-2.50;100.00
16834;BME280;8533;48.426;10.868;2023-02-28T01:49:46;96600.39;;;-2.51;100.00
16834;BME280;8533;48.426;10.868;2023-02-28T01:52:14;96604.23;;;-2.51;100.00
16834;BME280;8533;48.426;10.868;2023-02-28T01:54:46;96601.02;;;-2.49;99.88
16834;BME280;8533;48.426;10.868;2023-02-28T01:57:17;96598.12;;;-2.50;100.00
16834;BME280;8533;48.426;10.868;2023-02-28T01:59:59;96593.33;;;-2.53;100.00
16834;BME280;8533;48.426;10.868;2023-02-28T02:02:28;96606.27;;;-2.55;100.00
16834;BME280;8533;48.426;10.868;2023-02-28T02:05:04;96595.85;;;-2.57;100.00
16834;BME280;8533;48.426;10.868;2023-02-28T02:07:32;96594.57;;;-2.57;100.00
16834;BME280;8533;48.426;10.868;2023-02-28T02:10:11;96584.66;;;-2.56;100.00
16834;BME280;8533;48.426;10.868;2023-02-28T02:13:12;96585.14;;;-2.57;100.00
16834;BME280;8533;48.426;10.868;2023-02-28T02:24:00;96581.77;;;-2.61;100.00
16834;BME280;8533;48.426;10.868;2023-02-28T02:27:03;96577.13;;;-2.62;100.00
16834;BME280;8533;48.426;10.868;2023-02-28T02:29:53;96568.45;;;-2.65;100.00
16834;BME280;8533;48.426;10.868;2023-02-28T02:35:21;96565.89;;;-2.65;100.00
16834;BME280;8533;48.426;10.868;2023-02-28T02:37:58;96563.48;;;-2.66;100.00
16834;BME280;8533;48.426;10.868;2023-02-28T02:40:25;96559.96;;;-2.70;100.00
16834;BME280;8533;48.426;10.868;2023-02-28T02:45:47;96565.23;;;-2.67;100.00
16834;BME280;8533;48.426;10.868;2023-02-28T02:48:16;96563.84;;;-2.61;100.00
16834;BME280;8533;48.426;10.868;2023-02-28T02:50:54;96556.78;;;-2.67;100.00
16834;BME280;8533;48.426;10.868;2023-02-28T02:53:15;96562.53;;;-2.65;100.00
16834;BME280;8533;48.426;10.868;2023-02-28T02:55:46;96558.06;;;-2.67;100.00
16834;BME280;8533;48.426;10.868;2023-02-28T02:58:17;96566.84;;;-2.66;100.00
16834;BME280;8533;48.426;10.868;2023-02-28T03:00:50;96567.83;;;-2.63;100.00
16834;BME280;8533;48.426;10.868;2023-02-28T03:03:18;96571.81;;;-2.68;100.00
16834;BME280;8533;48.426;10.868;2023-02-28T03:05:50;96580.78;;;-2.64;100.00
16834;BME280;8533;48.426;10.868;2023-02-28T03:08:17;96577.55;;;-2.66;100.00
16834;BME280;8533;48.426;10.868;2023-02-28T03:10:55;96578.69;;;-2.65;100.00
16834;BME280;8533;48.426;10.868;2023-02-28T03:18:50;96577.92;;;-2.61;100.00
16834;BME280;8533;48.426;10.868;2023-02-28T03:24:05;96583.05;;;-2.61;100.00
16834;BME280;8533;48.426;10.868;2023-02-28T03:26:32;96588.78;;;-2.63;100.00
16834;BME280;8533;48.426;10.868;2023-02-28T03:29:09;96581.91;;;-2.63;100.00
16834;BME280;8533;48.426;10.868;2023-02-28T03:31:50;96590.39;;;-2.62;100.00
16834;BME280;8533;48.426;10.868;2023-02-28T03:34:24;96587.17;;;-2.64;100.00
16834;BME280;8533;48.426;10.868;2023-02-28T03:36:51;96588.60;;;-2.66;100.00
16834;BME280;8533;48.426;10.868;2023-02-28T03:39:35;96581.73;;;-2.65;100.00
16834;BME280;8533;48.426;10.868;2023-02-28T03:42:05;96583.33;;;-2.68;100.00
16834;BME280;8533;48.426;10.868;2023-02-28T03:44:44;96585.56;;;-2.65;100.00
16834;BME280;8533;48.426;10.868;2023-02-28T03:47:12;96591.95;;;-2.70;100.00
16834;BME280;8533;48.426;10.868;2023-02-28T03:49:52;96590.06;;;-2.67;100.00
16834;BME280;8533;48.426;10.868;2023-02-28T03:52:18;96586.22;;;-2.67;100.00
16834;BME280;8533;48.426;10.868;2023-02-28T03:54:49;96598.52;;;-2.67;100.00
16834;BME280;8533;48.426;10.868;2023-02-28T03:57:37;96599.97;;;-2.68;100.00
16834;BME280;8533;48.426;10.868;2023-02-28T04:02:37;96609.40;;;-2.69;100.00
16834;BME280;8533;48.426;10.868;2023-02-28T04:05:06;96605.41;;;-2.67;100.00
16834;BME280;8533;48.426;10.868;2023-02-28T04:07:34;96607.64;;;-2.68;100.00
16834;BME280;8533;48.426;10.868;2023-02-28T04:10:02;96603.14;;;-2.71;100.00
16834;BME280;8533;48.426;10.868;2023-02-28T04:12:30;96608.59;;;-2.70;100.00
16834;BME280;8533;48.426;10.868;2023-02-28T04:14:57;96599.59;;;-2.78;100.00
16834;BME280;8533;48.426;10.868;2023-02-28T04:17:24;96617.88;;;-2.68;100.00
16834;BME280;8533;48.426;10.868;2023-02-28T04:19:52;96620.11;;;-2.70;100.00
16834;BME280;8533;48.426;10.868;2023-02-28T04:22:21;96626.18;;;-2.71;100.00
16834;BME280;8533;48.426;10.868;2023-02-28T04:24:48;96619.97;;;-2.68;100.00
16834;BME280;8533;48.426;10.868;2023-02-28T04:27:16;96622.34;;;-2.71;100.00
16834;BME280;8533;48.426;10.868;2023-02-28T04:29:43;96628.23;;;-2.74;100.00
16834;BME280;8533;48.426;10.868;2023-02-28T04:32:11;96632.39;;;-2.73;100.00
16834;BME280;8533;48.426;10.868;2023-02-28T04:34:38;96624.39;;;-2.74;100.00
16834;BME280;8533;48.426;10.868;2023-02-28T04:37:06;96627.13;;;-2.72;100.00
16834;BME280;8533;48.426;10.868;2023-02-28T04:39:36;96620.26;;;-2.71;100.00
16834;BME280;8533;48.426;10.868;2023-02-28T04:42:04;96625.52;;;-2.77;100.00
16834;BME280;8533;48.426;10.868;2023-02-28T04:44:31;96623.72;;;-2.80;100.00
16834;BME280;8533;48.426;10.868;2023-02-28T04:46:59;96623.72;;;-2.80;100.00
16834;BME280;8533;48.426;10.868;2023-02-28T04:49:26;96620.68;;;-2.80;100.00
16834;BME280;8533;48.426;10.868;2023-02-28T04:51:54;96613.62;;;-2.82;100.00
16834;BME280;8533;48.426;10.868;2023-02-28T04:54:21;96616.03;;;-2.80;100.00
16834;BME280;8533;48.426;10.868;2023-02-28T04:56:49;96615.75;;;-2.77;100.00
16834;BME280;8533;48.426;10.868;2023-02-28T04:59:16;96616.84;;;-2.80;100.00
16834;BME280;8533;48.426;10.868;2023-02-28T05:01:46;96618.41;;;-2.83;100.00
16834;BME280;8533;48.426;10.868;2023-02-28T05:04:14;96616.66;;;-2.82;100.00
16834;BME280;8533;48.426;10.868;2023-02-28T05:06:42;96634.76;;;-2.80;100.00
16834;BME280;8533;48.426;10.868;2023-02-28T05:09:09;96626.27;;;-2.80;100.00
16834;BME280;8533;48.426;10.868;2023-02-28T05:11:40;96627.37;;;-2.83;100.00
16834;BME280;8533;48.426;10.868;2023-02-28T05:14:13;96635.23;;;-2.80;100.00
16834;BME280;8533;48.426;10.868;2023-02-28T05:16:41;96629.77;;;-2.85;100.00
16834;BME280;8533;48.426;10.868;2023-02-28T05:19:08;96641.61;;;-2.84;100.00
16834;BME280;8533;48.426;10.868;2023-02-28T05:21:53;96630.25;;;-2.82;100.00
16834;BME280;8533;48.426;10.868;2023-02-28T05:24:21;96630.91;;;-2.84;100.00
16834;BME280;8533;48.426;10.868;2023-02-28T05:26:54;96646.87;;;-2.86;100.00
16834;BME280;8533;48.426;10.868;2023-02-28T05:29:21;96637.41;;;-2.89;100.00
16834;BME280;8533;48.426;10.868;2023-02-28T05:31:49;96638.20;;;-2.89;100.00
16834;BME280;8533;48.426;10.868;2023-02-28T05:34:16;96634.55;;;-2.86;100.00
16834;BME280;8533;48.426;10.868;2023-02-28T05:36:44;96635.50;;;-2.87;100.00
16834;BME280;8533;48.426;10.868;2023-02-28T05:39:12;96639.02;;;-2.88;100.00
16834;BME280;8533;48.426;10.868;2023-02-28T05:41:43;96632.47;;;-2.87;100.00
16834;BME280;8533;48.426;10.868;2023-02-28T05:44:10;96625.22;;;-2.91;100.00
16834;BME280;8533;48.426;10.868;2023-02-28T05:46:38;96631.95;;;-2.90;100.00
16834;BME280;8533;48.426;10.868;2023-02-28T05:49:05;96623.95;;;-2.91;100.00
16834;BME280;8533;48.426;10.868;2023-02-28T05:51:33;96624.41;;;-2.96;100.00
16834;BME280;8533;48.426;10.868;2023-02-28T05:54:02;96629.52;;;-2.96;100.00
16834;BME280;8533;48.426;10.868;2023-02-28T05:56:30;96630.33;;;-2.95;100.00
16834;BME280;8533;48.426;10.868;2023-02-28T05:58:57;96634.63;;;-3.00;100.00
16834;BME280;8533;48.426;10.868;2023-02-28T06:01:33;96635.91;;;-3.00;100.00
16834;BME280;8533;48.426;10.868;2023-02-28T06:04:00;96640.52;;;-2.99;100.00
16834;BME280;8533;48.426;10.868;2023-02-28T06:06:28;96646.91;;;-2.99;100.00
16834;BME280;8533;48.426;10.868;2023-02-28T06:08:57;96644.34;;;-3.03;100.00
16834;BME280;8533;48.426;10.868;2023-02-28T06:11:25;96641.45;;;-3.04;100.00
16834;BME280;8533;48.426;10.868;2023-02-28T06:13:56;96644.67;;;-3.02;100.00
16834;BME280;8533;48.426;10.868;2023-02-28T06:16:26;96651.53;;;-3.03;100.00
16834;BME280;8533;48.426;10.868;2023-02-28T06:18:54;96658.86;;;-3.08;100.00
16834;BME280;8533;48.426;10.868;2023-02-28T06:21:22;96660.61;;;-3.09;100.00
16834;BME280;8533;48.426;10.868;2023-02-28T06:23:50;96663.85;;;-3.02;100.00
16834;BME280;8533;48.426;10.868;2023-02-28T06:26:17;96667.31;;;-3.08;100.00
16834;BME280;8533;48.426;10.868;2023-02-28T06:28:45;96678.05;;;-3.08;100.00
16834;BME280;8533;48.426;10.868;2023-02-28T06:31:18;96669.70;;;-3.10;100.00
16834;BME280;8533;48.426;10.868;2023-02-28T06:33:44;96676.27;;;-3.08;100.00
16834;BME280;8533;48.426;10.868;2023-02-28T06:36:13;96688.11;;;-3.07;100.00
16834;BME280;8533;48.426;10.868;2023-02-28T06:38:41;96691.19;;;-3.03;100.00
16834;BME280;8533;48.426;10.868;2023-02-28T06:41:09;96693.22;;;-3.07;100.00
16834;BME280;8533;48.426;10.868;2023-02-28T06:43:39;96700.28;;;-3.04;100.00
16834;BME280;8533;48.426;10.868;2023-02-28T06:46:09;96711.77;;;-3.09;100.00
16834;BME280;8533;48.426;10.868;2023-02-28T06:48:37;96710.38;;;-3.03;100.00
16834;BME280;8533;48.426;10.868;2023-02-28T06:51:10;96712.48;;;-2.98;100.00
16834;BME280;8533;48.426;10.868;2023-02-28T06:53:38;96718.07;;;-2.99;100.00
16834;BME280;8533;48.426;10.868;2023-02-28T06:56:11;96711.84;;;-3.00;100.00
16834;BME280;8533;48.426;10.868;2023-02-28T06:58:39;96717.59;;;-2.98;100.00
16834;BME280;8533;48.426;10.868;2023-02-28T07:01:07;96713.01;;;-2.95;100.00
16834;BME280;8533;48.426;10.868;2023-02-28T07:03:36;96719.05;;;-3.00;100.00
16834;BME280;8533;48.426;10.868;2023-02-28T07:06:05;96718.93;;;-2.94;100.00
16834;BME280;8533;48.426;10.868;2023-02-28T07:08:34;96721.82;;;-2.93;100.00
16834;BME280;8533;48.426;10.868;2023-02-28T07:11:02;96718.07;;;-2.99;100.00
16834;BME280;8533;48.426;10.868;2023-02-28T07:13:30;96727.08;;;-2.95;100.00
16834;BME280;8533;48.426;10.868;2023-02-28T07:16:00;96714.83;;;-3.05;100.00
16834;BME280;8533;48.426;10.868;2023-02-28T07:18:28;96721.36;;;-3.07;100.00
16834;BME280;8533;48.426;10.868;2023-02-28T07:20:56;96712.53;;;-2.94;100.00
16834;BME280;8533;48.426;10.868;2023-02-28T07:23:25;96715.90;;;-2.94;100.00
16834;BME280;8533;48.426;10.868;2023-02-28T07:25:53;96717.25;;;-2.86;100.00
16834;BME280;8533;48.426;10.868;2023-02-28T07:28:21;96711.94;;;-2.88;100.00
16834;BME280;8533;48.426;10.868;2023-02-28T07:30:48;96708.64;;;-2.81;100.00
16834;BME280;8533;48.426;10.868;2023-02-28T07:33:16;96711.18;;;-2.85;100.00
16834;BME280;8533;48.426;10.868;2023-02-28T07:35:43;96711.81;;;-2.83;100.00
16834;BME280;8533;48.426;10.868;2023-02-28T07:38:10;96715.70;;;-2.79;100.00
16834;BME280;8533;48.426;10.868;2023-02-28T07:40:39;96711.20;;;-2.81;100.00
16834;BME280;8533;48.426;10.868;2023-02-28T07:43:07;96714.82;;;-2.70;100.00
16834;BME280;8533;48.426;10.868;2023-02-28T07:45:34;96716.86;;;-2.73;100.00
16834;BME280;8533;48.426;10.868;2023-02-28T07:48:02;96725.34;;;-2.73;100.00
16834;BME280;8533;48.426;10.868;2023-02-28T07:50:30;96722.03;;;-2.69;100.00
16834;BME280;8533;48.426;10.868;2023-02-28T07:52:58;96724.80;;;-2.62;100.00
16834;BME280;8533;48.426;10.868;2023-02-28T07:55:26;96726.21;;;-2.64;100.00
16834;BME280;8533;48.426;10.868;2023-02-28T07:57:57;96722.42;;;-2.60;100.00
16834;BME280;8533;48.426;10.868;2023-02-28T08:00:24;96723.05;;;-2.58;100.00
16834;BME280;8533;48.426;10.868;2023-02-28T08:02:52;96726.80;;;-2.52;100.00
16834;BME280;8533;48.426;10.868;2023-02-28T08:05:19;96720.98;;;-2.37;100.00
16834;BME280;8533;48.426;10.868;2023-02-28T08:07:49;96727.67;;;-2.40;100.00
16834;BME280;8533;48.426;10.868;2023-02-28T08:10:17;96730.36;;;-2.45;100.00
16834;BME280;8533;48.426;10.868;2023-02-28T08:12:44;96730.10;;;-2.34;100.00
16834;BME280;8533;48.426;10.868;2023-02-28T08:15:11;96735.61;;;-2.25;100.00
16834;BME280;8533;48.426;10.868;2023-02-28T08:17:39;96729.30;;;-2.13;100.00
16834;BME280;8533;48.426;10.868;2023-02-28T08:20:07;96729.63;;;-2.12;100.00
16834;BME280;8533;48.426;10.868;2023-02-28T08:22:36;96728.82;;;-2.12;100.00
16834;BME280;8533;48.426;10.868;2023-02-28T08:25:04;96734.18;;;-1.98;100.00
16834;BME280;8533;48.426;10.868;2023-02-28T08:27:33;96725.50;;;-2.01;100.00
16834;BME280;8533;48.426;10.868;2023-02-28T08:30:01;96733.19;;;-2.05;100.00
16834;BME280;8533;48.426;10.868;2023-02-28T08:32:29;96733.46;;;-1.82;100.00
16834;BME280;8533;48.426;10.868;2023-02-28T08:34:56;96731.73;;;-1.69;100.00
16834;BME280;8533;48.426;10.868;2023-02-28T08:37:24;96734.25;;;-1.43;99.70
16834;BME280;8533;48.426;10.868;2023-02-28T08:39:51;96730.97;;;-1.66;99.03
16834;BME280;8533;48.426;10.868;2023-02-28T08:42:19;96731.11;;;-1.67;97.91
16834;BME280;8533;48.426;10.868;2023-02-28T08:44:46;96729.53;;;-1.64;97.74
16834;BME280;8533;48.426;10.868;2023-02-28T08:47:13;96730.25;;;-1.46;96.80
16834;BME280;8533;48.426;10.868;2023-02-28T08:49:41;96735.88;;;-1.34;94.82
16834;BME280;8533;48.426;10.868;2023-02-28T08:52:08;96730.82;;;-1.14;92.71
16834;BME280;8533;48.426;10.868;2023-02-28T08:54:36;96734.60;;;-1.34;91.65
16834;BME280;8533;48.426;10.868;2023-02-28T08:57:03;96733.52;;;-1.20;92.42
16834;BME280;8533;48.426;10.868;2023-02-28T08:59:31;96739.96;;;-1.03;90.91
16834;BME280;8533;48.426;10.868;2023-02-28T09:02:00;96738.73;;;-0.75;88.86
16834;BME280;8533;48.426;10.868;2023-02-28T09:04:28;96739.37;;;-0.77;87.04
16834;BME280;8533;48.426;10.868;2023-02-28T09:06:57;96731.49;;;-0.92;89.05
16834;BME280;8533;48.426;10.868;2023-02-28T09:09:24;96738.06;;;-0.93;89.66
16834;BME280;8533;48.426;10.868;2023-02-28T09:11:51;96739.84;;;-0.78;88.65
16834;BME280;8533;48.426;10.868;2023-02-28T09:14:22;96739.80;;;-1.10;88.63
16834;BME280;8533;48.426;10.868;2023-02-28T09:16:49;96736.58;;;-1.12;88.99
16834;BME280;8533;48.426;10.868;2023-02-28T09:19:17;96736.58;;;-1.12;88.85
16834;BME280;8533;48.426;10.868;2023-02-28T09:21:44;96741.59;;;-0.98;88.84
16834;BME280;8533;48.426;10.868;2023-02-28T09:24:12;96749.09;;;-1.17;89.93
16834;BME280;8533;48.426;10.868;2023-02-28T09:26:42;96741.40;;;-1.05;89.46
16834;BME280;8533;48.426;10.868;2023-02-28T09:29:09;96748.95;;;-1.03;89.25
16834;BME280;8533;48.426;10.868;2023-02-28T09:31:37;96749.47;;;-0.92;89.22
16834;BME280;8533;48.426;10.868;2023-02-28T09:34:05;96751.89;;;-0.82;88.04
16834;BME280;8533;48.426;10.868;2023-02-28T09:36:33;96753.16;;;-0.78;87.73
16834;BME280;8533;48.426;10.868;2023-02-28T09:39:02;96761.36;;;-0.83;87.01
16834;BME280;8533;48.426;10.868;2023-02-28T09:41:35;96760.87;;;-0.78;87.90
16834;BME280;8533;48.426;10.868;2023-02-28T09:44:03;96757.66;;;-0.64;86.56
16834;BME280;8533;48.426;10.868;2023-02-28T09:46:34;96754.00;;;-0.41;85.88
16834;BME280;8533;48.426;10.868;2023-02-28T09:49:05;96751.70;;;-0.08;84.04
16834;BME280;8533;48.426;10.868;2023-02-28T09:51:52;96755.21;;;0.59;80.56
16834;BME280;8533;48.426;10.868;2023-02-28T09:54:21;96757.06;;;0.34;80.09
16834;BME280;8533;48.426;10.868;2023-02-28T09:57:06;96758.11;;;0.64;79.00
16834;BME280;8533;48.426;10.868;2023-02-28T10:05:15;96772.16;;;0.45;78.68
16834;BME280;8533;48.426;10.868;2023-02-28T10:10:39;96766.77;;;1.02;75.51
16834;BME280;8533;48.426;10.868;2023-02-28T10:13:14;96759.47;;;1.09;76.05
16834;BME280;8533;48.426;10.868;2023-02-28T10:15:42;96778.73;;;1.22;75.21
16834;BME280;8533;48.426;10.868;2023-02-28T10:18:13;96772.48;;;1.80;73.63
16834;BME280;8533;48.426;10.868;2023-02-28T10:20:42;96777.78;;;1.41;72.92
16834;BME280;8533;48.426;10.868;2023-02-28T10:23:14;96766.83;;;1.17;73.81
16834;BME280;8533;48.426;10.868;2023-02-28T10:25:43;96772.00;;;1.81;72.02
16834;BME280;8533;48.426;10.868;2023-02-28T10:28:15;96773.03;;;1.72;71.25
16834;BME280;8533;48.426;10.868;2023-02-28T10:30:49;96772.47;;;1.16;72.36
16834;BME280;8533;48.426;10.868;2023-02-28T10:33:31;96781.20;;;1.11;74.56
16834;BME280;8533;48.426;10.868;2023-02-28T10:36:01;96774.45;;;1.06;75.47
16834;BME280;8533;48.426;10.868;2023-02-28T10:38:37;96780.52;;;1.40;74.38
16834;BME280;8533;48.426;10.868;2023-02-28T10:41:07;96778.71;;;0.95;74.97
16834;BME280;8533;48.426;10.868;2023-02-28T10:43:37;96779.16;;;0.98;73.95
16834;BME280;8533;48.426;10.868;2023-02-28T10:46:11;96779.84;;;0.96;74.37
16834;BME280;8533;48.426;10.868;2023-02-28T10:48:39;96783.73;;;1.19;75.23
16834;BME280;8533;48.426;10.868;2023-02-28T10:51:16;96774.96;;;1.05;73.39
16834;BME280;8533;48.426;10.868;2023-02-28T10:53:48;96777.66;;;1.08;73.90
16834;BME280;8533;48.426;10.868;2023-02-28T10:56:22;96776.60;;;1.48;73.05
16834;BME280;8533;48.426;10.868;2023-02-28T10:58:55;96767.95;;;1.45;72.62
16834;BME280;8533;48.426;10.868;2023-02-28T11:04:01;96772.13;;;1.46;72.17
16834;BME280;8533;48.426;10.868;2023-02-28T11:06:33;96772.66;;;1.60;72.32
16834;BME280;8533;48.426;10.868;2023-02-28T11:09:04;96765.94;;;1.93;73.13
16834;BME280;8533;48.426;10.868;2023-02-28T11:11:44;96768.31;;;2.13;73.30
16834;BME280;8533;48.426;10.868;2023-02-28T11:14:17;96775.61;;;1.95;73.13
16834;BME280;8533;48.426;10.868;2023-02-28T11:16:43;96771.17;;;1.84;70.53
16834;BME280;8533;48.426;10.868;2023-02-28T11:19:19;96767.14;;;1.63;71.54
16834;BME280;8533;48.426;10.868;2023-02-28T11:21:56;96778.05;;;1.28;71.78
16834;BME280;8533;48.426;10.868;2023-02-28T11:24:30;96771.11;;;1.51;72.42
16834;BME280;8533;48.426;10.868;2023-02-28T11:26:58;96771.41;;;1.75;72.76
16834;BME280;8533;48.426;10.868;2023-02-28T11:29:27;96766.50;;;1.84;72.52
16834;BME280;8533;48.426;10.868;2023-02-28T11:32:33;96772.39;;;1.93;71.91
16834;BME280;8533;48.426;10.868;2023-02-28T11:34:34;96774.69;;;2.21;71.52
16834;BME280;8533;48.426;10.868;2023-02-28T11:37:02;96763.06;;;2.06;70.32
16834;BME280;8533;48.426;10.868;2023-02-28T11:39:32;96765.11;;;1.77;71.28
16834;BME280;8533;48.426;10.868;2023-02-28T11:47:26;96761.56;;;1.78;70.08
16834;BME280;8533;48.426;10.868;2023-02-28T11:52:45;96753.92;;;2.48;68.10
16834;BME280;8533;48.426;10.868;2023-02-28T11:58:17;96752.83;;;1.98;69.78
16834;BME280;8533;48.426;10.868;2023-02-28T12:06:37;96746.84;;;1.83;70.37
16834;BME280;8533;48.426;10.868;2023-02-28T12:09:11;96738.94;;;2.18;70.75
16834;BME280;8533;48.426;10.868;2023-02-28T12:17:32;96740.56;;;2.44;69.22
16834;BME280;8533;48.426;10.868;2023-02-28T12:28:39;96737.30;;;2.86;67.88
16834;BME280;8533;48.426;10.868;2023-02-28T12:34:01;96721.66;;;3.62;64.19
16834;BME280;8533;48.426;10.868;2023-02-28T12:36:30;96723.09;;;3.22;64.89
16834;BME280;8533;48.426;10.868;2023-02-28T12:39:00;96724.28;;;3.79;64.11
16834;BME280;8533;48.426;10.868;2023-02-28T12:41:32;96730.45;;;3.04;64.69
16834;BME280;8533;48.426;10.868;2023-02-28T12:44:08;96721.16;;;3.63;64.72
16834;BME280;8533;48.426;10.868;2023-02-28T12:46:41;96725.98;;;3.55;63.91
16834;BME280;8533;48.426;10.868;2023-02-28T12:49:13;96716.25;;;3.36;64.29
16834;BME280;8533;48.426;10.868;2023-02-28T12:51:40;96724.62;;;3.27;64.97
16834;BME280;8533;48.426;10.868;2023-02-28T12:54:28;96717.33;;;3.80;62.23
16834;BME280;8533;48.426;10.868;2023-02-28T12:56:48;96711.75;;;3.83;62.11
16834;BME280;8533;48.426;10.868;2023-02-28T13:04:55;96706.89;;;3.84;62.83
16834;BME280;8533;48.426;10.868;2023-02-28T13:09:56;96712.29;;;3.72;64.73
16834;BME280;8533;48.426;10.868;2023-02-28T13:12:25;96700.73;;;3.47;63.55
16834;BME280;8533;48.426;10.868;2023-02-28T13:15:07;96706.67;;;3.68;63.13
16834;BME280;8533;48.426;10.868;2023-02-28T13:17:40;96700.13;;;4.00;63.15
16834;BME280;8533;48.426;10.868;2023-02-28T13:20:21;96699.55;;;3.49;63.70
16834;BME280;8533;48.426;10.868;2023-02-28T13:22:45;96706.29;;;3.22;64.94
16834;BME280;8533;48.426;10.868;2023-02-28T13:28:12;96700.87;;;3.06;66.56
16834;BME280;8533;48.426;10.868;2023-02-28T13:33:31;96709.80;;;2.79;65.39
16834;BME280;8533;48.426;10.868;2023-02-28T13:36:06;96711.65;;;2.85;65.12
16834;BME280;8533;48.426;10.868;2023-02-28T13:38:42;96716.16;;;2.87;65.46
16834;BME280;8533;48.426;10.868;2023-02-28T13:44:21;96711.73;;;3.02;64.40
16834;BME280;8533;48.426;10.868;2023-02-28T13:49:27;96709.16;;;3.02;65.64
16834;BME280;8533;48.426;10.868;2023-02-28T13:55:03;96712.55;;;2.92;65.22
16834;BME280;8533;48.426;10.868;2023-02-28T13:57:59;96703.45;;;3.06;65.82
16834;BME280;8533;48.426;10.868;2023-02-28T14:03:40;96702.64;;;3.27;64.90
16834;BME280;8533;48.426;10.868;2023-02-28T14:08:58;96705.65;;;3.41;65.03
16834;BME280;8533;48.426;10.868;2023-02-28T14:11:28;96708.56;;;3.21;65.29
16834;BME280;8533;48.426;10.868;2023-02-28T14:13:55;96712.05;;;3.03;65.65
16834;BME280;8533;48.426;10.868;2023-02-28T14:16:39;96709.48;;;3.35;66.45
16834;BME280;8533;48.426;10.868;2023-02-28T14:19:24;96707.69;;;3.25;64.65
16834;BME280;8533;48.426;10.868;2023-02-28T14:22:07;96708.80;;;3.26;65.88
16834;BME280;8533;48.426;10.868;2023-02-28T14:24:51;96709.17;;;3.13;66.49
16834;BME280;8533;48.426;10.868;2023-02-28T14:27:38;96711.44;;;3.43;66.41
16834;BME280;8533;48.426;10.868;2023-02-28T14:38:14;96701.49;;;3.40;65.14
16834;BME280;8533;48.426;10.868;2023-02-28T14:40:43;96704.92;;;3.26;64.79
16834;BME280;8533;48.426;10.868;2023-02-28T14:43:22;96701.48;;;3.30;64.71
16834;BME280;8533;48.426;10.868;2023-02-28T14:45:53;96692.12;;;3.18;65.17
16834;BME280;8533;48.426;10.868;2023-02-28T14:48:16;96709.55;;;3.20;64.55
16834;BME280;8533;48.426;10.868;2023-02-28T14:50:53;96703.14;;;3.37;64.83
16834;BME280;8533;48.426;10.868;2023-02-28T14:53:21;96709.71;;;3.51;64.35
16834;BME280;8533;48.426;10.868;2023-02-28T14:55:49;96710.56;;;3.58;64.98
16834;BME280;8533;48.426;10.868;2023-02-28T14:58:29;96702.88;;;3.54;65.88
16834;BME280;8533;48.426;10.868;2023-02-28T15:00:57;96704.36;;;3.41;65.01
16834;BME280;8533;48.426;10.868;2023-02-28T15:03:39;96704.74;;;3.28;64.81